Durant, OK

11:48 AM CDT on April 25, 2015 (GMT -0500)
Ridgemont Estate | | Change Station
CLOSE
Current Station
Personal Weather Station
Location: Durant, OK
Elevation: 689 ft
Nearby Weather Stations
Active Advisory: Flood Warning Active Notice: Local Storm Report

Elev 689 ft 34.02 °N, 96.40 °W | Updated 14 minutes ago

Clear
Clear
74.5 °F
Feels Like 77 °F
N
3.8
Wind Variable Wind from South

Today
High -- | Low -- °F
--% Chance of Precip.
Yesterday
High -- | Low -- °F
Precip. -- in
6:43 AM 8:04 PM
Waxing Crescent, 47% visible
Pressure 29.70 in
Visibility 10.0 miles
Clouds Clear
Heat Index 77 °F
Dew Point 55 °F
Humidity 51%
Rainfall 0.00 in
Snow Depth Not available.
UV 9 out of 12
Pollen 7.00 out of 12
Air Quality Not available.
Flu Activity Local Activity
METAR KDUA 251635Z AUTO 29007KT 10SM CLR 23/11 A2970 RMK AO2

More Conditions Fewer Conditions

Pressure 29.70 in
Visibility 10.0 miles
Clouds Clear
Heat Index 77 °F
Dew Point 55 °F
Humidity 51%
Rainfall 0.00 in
Snow Depth Not available.
UV 9 out of 12
Pollen 7.00 out of 12
Air Quality Not available.
Flu Activity Local Activity
METAR KDUA 251635Z AUTO 29007KT 10SM CLR 23/11 A2970 RMK AO2

More Conditions Fewer Conditions

10-Day Weather Forecast

Almanac

Astronomy

Apr. 25, 2015 Rise Set
Actual Time
Civil Twilight
Nautical Twilight
Astronomical Twilight
Moon
Length of Visible Light
Length of Day
Tomorrow will be .
, % of the Moon is Illuminated

Today's Extremes

State Highs State Lows

Community

WunderPhotos

Upload Photos

1,816,737 photos uploaded!

WunderBlogs® & News

Nearby

Air Quality

  Air Quality AQ Index Pollutant
Not available.

Snow Depth

Station Depth Elevation

Earthquake Activity

City Distance Mag. Time & Date
Minimum magnitude displayed is 2.5.

Coastal Water Temperatures

Place Temperature

Stations

Nearby Weather Stations

Station Location Temp. Windchill Dew Point Humidity Wind Precip. Elev Updated Type
                   
Flood Warning
Statement as of 8:27 AM CDT on April 25, 2015

The National Weather Service in Norman has issued a

* Flood Warning for
the Blue River near blue.

* Until this afternoon... or until the warning is cancelled.

* At 7:30 am Saturday the stage was 28.3 feet.

* Flood stage is 28.0 feet.

* Forecast... the Blue River has crested and will continue to fall.
The Blue River will fall below flood stage mid Saturday morning.

* Impact... at 28 feet... overflows along the river banks occur in some
places along the river... from central Bryan County to the
confluence with the Red River. Inflows from local streams could
cause slightly higher stages in their common flood plain. Only
farmlands are affected.



Lat... Lon 3405 9636 3408 9634 3395 9609 3389 9596
      3387 9607 3397 9626